createdAt,value
2018-07-19T00:00:12.561Z,12.90
2018-07-19T00:02:40.888Z,12.90
2018-07-19T00:05:09.223Z,12.80
2018-07-19T00:07:37.523Z,12.80
2018-07-19T00:10:12.418Z,12.80
2018-07-19T00:12:40.781Z,13.00
2018-07-19T00:15:09.090Z,13.10
2018-07-19T00:17:37.425Z,13.00
2018-07-19T00:20:06.069Z,12.80
2018-07-19T00:22:34.349Z,12.70
2018-07-19T00:27:30.713Z,12.40
2018-07-19T00:29:59.004Z,12.40
2018-07-19T00:32:27.295Z,12.30
2018-07-19T00:34:55.615Z,12.30
2018-07-19T00:37:23.917Z,12.30
2018-07-19T00:39:52.353Z,12.30
2018-07-19T00:42:20.643Z,12.40
2018-07-19T00:44:48.931Z,12.50
2018-07-19T00:49:45.344Z,12.70
2018-07-19T00:52:13.771Z,12.90
2018-07-19T00:54:42.109Z,12.90
2018-07-19T00:57:10.510Z,12.80
2018-07-19T00:59:38.920Z,12.70
2018-07-19T01:02:07.775Z,12.50
2018-07-19T01:04:36.152Z,12.30
2018-07-19T01:07:04.505Z,12.30
2018-07-19T01:09:32.862Z,12.30
2018-07-19T01:12:01.251Z,12.40
2018-07-19T01:14:29.661Z,12.30
2018-07-19T01:16:58.050Z,12.20
2018-07-19T01:19:26.393Z,12.00
2018-07-19T01:21:54.801Z,12.10
2018-07-19T01:24:23.200Z,12.00
2018-07-19T01:26:51.501Z,11.80
2018-07-19T01:29:19.907Z,11.80
2018-07-19T01:31:48.318Z,11.90
2018-07-19T01:34:16.740Z,12.00
2018-07-19T01:36:45.081Z,12.20
2018-07-19T01:39:13.405Z,12.40
2018-07-19T01:42:25.753Z,12.30
2018-07-19T01:44:54.127Z,12.30
2018-07-19T01:47:22.543Z,12.20
2018-07-19T01:49:50.855Z,12.20
2018-07-19T01:52:19.306Z,12.30
2018-07-19T01:54:47.735Z,12.30
2018-07-19T01:57:17.231Z,12.30
2018-07-19T01:59:46.189Z,12.30
2018-07-19T02:02:14.769Z,12.30
2018-07-19T02:04:43.223Z,12.20
2018-07-19T02:07:11.606Z,12.10
2018-07-19T02:09:40.228Z,12.00
2018-07-19T02:12:08.627Z,11.90
2018-07-19T02:14:37.010Z,11.90
2018-07-19T02:17:05.836Z,11.80
2018-07-19T02:19:34.176Z,11.80
2018-07-19T02:22:02.760Z,11.70
2018-07-19T02:24:31.114Z,11.60
2018-07-19T02:26:59.527Z,11.50
2018-07-19T02:29:27.865Z,11.40
2018-07-19T02:31:56.205Z,11.30
2018-07-19T02:34:24.646Z,11.30
2018-07-19T02:36:53.057Z,11.30
2018-07-19T02:39:21.394Z,11.40
2018-07-19T02:41:49.739Z,11.40
2018-07-19T02:44:18.062Z,11.40
2018-07-19T02:46:46.462Z,11.30
2018-07-19T02:49:14.823Z,11.10
2018-07-19T02:51:43.729Z,11.10
2018-07-19T02:54:12.376Z,11.20
2018-07-19T02:56:40.782Z,11.20
2018-07-19T02:59:09.142Z,11.20
2018-07-19T03:01:37.474Z,11.20
2018-07-19T03:04:05.859Z,11.00
2018-07-19T03:06:34.291Z,11.00
2018-07-19T03:09:02.649Z,10.80
2018-07-19T03:11:30.955Z,10.70
2018-07-19T03:18:55.422Z,10.50
2018-07-19T03:21:23.768Z,10.50
2018-07-19T03:24:07.938Z,10.40
2018-07-19T03:26:36.334Z,10.30
2018-07-19T03:29:04.681Z,10.30
2018-07-19T03:31:33.063Z,10.20
2018-07-19T03:34:01.382Z,10.30
2018-07-19T03:36:29.714Z,10.30
2018-07-19T03:38:58.080Z,10.40
2018-07-19T03:41:26.496Z,10.50
2018-07-19T03:43:54.887Z,10.50
2018-07-19T03:46:23.386Z,10.50
2018-07-19T03:51:19.835Z,10.50
2018-07-19T03:53:48.160Z,10.40
2018-07-19T03:56:16.563Z,10.50
2018-07-19T03:58:44.882Z,10.60
2018-07-19T04:01:13.263Z,10.70
2018-07-19T04:03:41.633Z,10.80
2018-07-19T04:06:10.029Z,10.90
2018-07-19T04:08:38.534Z,10.90
2018-07-19T04:11:06.890Z,11.00
2018-07-19T04:13:35.276Z,11.10
2018-07-19T04:16:03.647Z,11.10
2018-07-19T04:18:32.038Z,11.10
2018-07-19T04:21:00.390Z,11.20
2018-07-19T04:24:31.698Z,11.30
2018-07-19T04:27:00.168Z,11.30
2018-07-19T04:29:28.532Z,11.40
2018-07-19T04:31:56.904Z,11.50
2018-07-19T04:34:25.259Z,11.60
2018-07-19T04:36:53.760Z,11.70
2018-07-19T04:39:22.429Z,11.80
2018-07-19T04:41:50.806Z,11.90
2018-07-19T04:44:19.154Z,12.00
2018-07-19T04:46:47.711Z,12.10
2018-07-19T04:49:16.093Z,12.20
2018-07-19T04:51:44.501Z,12.30
2018-07-19T04:54:12.847Z,12.40
2018-07-19T04:56:41.498Z,12.50
2018-07-19T04:59:09.869Z,12.60
2018-07-19T05:01:38.386Z,12.80
2018-07-19T05:04:06.987Z,13.00
2018-07-19T05:06:35.628Z,13.20
2018-07-19T05:09:06.170Z,13.50
2018-07-19T05:11:34.600Z,13.70
2018-07-19T05:14:02.993Z,14.00
2018-07-19T05:16:31.340Z,14.20
2018-07-19T05:18:59.768Z,14.50
2018-07-19T05:21:28.117Z,14.80
2018-07-19T05:23:56.591Z,15.10
2018-07-19T05:26:25.201Z,15.40
2018-07-19T05:28:53.711Z,15.60
2018-07-19T05:31:22.058Z,15.90
2018-07-19T05:33:50.507Z,16.20
2018-07-19T05:36:18.892Z,16.70
2018-07-19T05:38:47.310Z,17.00
2018-07-19T05:41:15.664Z,17.40
2018-07-19T05:43:44.121Z,17.50
2018-07-19T05:46:12.483Z,17.70
2018-07-19T05:48:41.038Z,18.10
2018-07-19T05:51:10.089Z,18.40
2018-07-19T05:53:38.528Z,18.60
2018-07-19T05:56:07.078Z,19.00
2018-07-19T05:58:35.483Z,19.40
2018-07-19T06:01:03.852Z,19.70
2018-07-19T06:03:32.253Z,19.70
2018-07-19T06:06:00.578Z,19.80
2018-07-19T06:08:28.892Z,20.00
2018-07-19T06:10:57.358Z,20.50
2018-07-19T06:13:25.717Z,20.70
2018-07-19T06:15:54.053Z,21.20
2018-07-19T06:18:22.405Z,21.90
2018-07-19T06:20:50.733Z,22.20
2018-07-19T06:25:47.353Z,22.70
2018-07-19T06:28:15.699Z,23.00
2018-07-19T06:30:44.023Z,23.30
2018-07-19T06:33:12.353Z,23.90
2018-07-19T06:35:40.732Z,24.40
2018-07-19T06:38:09.090Z,25.50
2018-07-19T06:40:37.405Z,26.30
2018-07-19T06:43:06.140Z,27.80
2018-07-19T06:45:34.492Z,28.80
2018-07-19T06:48:02.841Z,28.20
2018-07-19T06:53:05.993Z,29.50
2018-07-19T06:55:34.402Z,30.20
2018-07-19T06:58:02.764Z,30.40
2018-07-19T07:00:31.086Z,30.00
2018-07-19T07:02:59.401Z,30.30
2018-07-19T07:05:27.694Z,30.80
2018-07-19T07:07:55.997Z,30.90
2018-07-19T07:10:24.425Z,30.00
2018-07-19T07:12:52.845Z,29.30
2018-07-19T07:15:21.240Z,29.20
2018-07-19T07:17:49.540Z,30.10
2018-07-19T07:20:17.869Z,30.70
2018-07-19T07:22:46.181Z,31.50
2018-07-19T07:25:14.586Z,31.60
2018-07-19T07:27:42.865Z,30.90
2018-07-19T07:30:11.223Z,29.40
2018-07-19T07:32:39.555Z,29.40
2018-07-19T07:35:08.307Z,30.30
2018-07-19T07:37:36.632Z,31.50
2018-07-19T07:40:05.727Z,28.60
2018-07-19T07:42:34.073Z,27.80
2018-07-19T07:45:02.441Z,28.50
2018-07-19T07:47:30.774Z,28.80
2018-07-19T07:49:59.098Z,28.90
2018-07-19T07:52:27.419Z,30.20
2018-07-19T07:54:55.794Z,30.30
2018-07-19T07:57:24.066Z,31.00
2018-07-19T07:59:52.383Z,30.80
2018-07-19T08:02:20.687Z,31.10
2018-07-19T08:04:48.998Z,31.20
2018-07-19T08:07:17.319Z,31.00
2018-07-19T08:09:45.697Z,30.20
2018-07-19T08:12:13.973Z,30.80
2018-07-19T08:14:42.311Z,30.40
2018-07-19T08:17:10.645Z,30.80
2018-07-19T08:19:38.934Z,31.60
2018-07-19T08:22:07.263Z,31.60
2018-07-19T08:24:35.576Z,31.60
2018-07-19T08:27:03.900Z,31.30
2018-07-19T08:29:32.185Z,30.70
2018-07-19T08:32:00.500Z,30.40
2018-07-19T08:34:28.806Z,31.00
2018-07-19T08:36:57.094Z,31.20
2018-07-19T08:39:25.404Z,31.50
2018-07-19T08:41:53.686Z,31.30
2018-07-19T08:44:21.997Z,30.90
2018-07-19T08:49:18.317Z,30.20
2018-07-19T08:51:46.603Z,30.10
2018-07-19T08:54:14.898Z,31.10
2018-07-19T08:56:43.237Z,30.60
2018-07-19T08:59:11.473Z,30.20
2018-07-19T09:01:39.918Z,30.40
2018-07-19T09:04:08.250Z,30.70
2018-07-19T09:06:36.565Z,30.40
2018-07-19T09:09:07.374Z,30.30
2018-07-19T09:11:35.780Z,30.60
2018-07-19T09:14:04.280Z,30.10
2018-07-19T09:16:32.594Z,30.30
2018-07-19T09:19:00.877Z,30.80
2018-07-19T09:21:29.510Z,30.10
2018-07-19T09:23:57.825Z,28.40
2018-07-19T09:26:26.163Z,26.70
2018-07-19T09:28:54.477Z,25.80
2018-07-19T09:31:22.846Z,25.30
2018-07-19T09:33:51.142Z,24.90
2018-07-19T09:36:19.454Z,24.20
2018-07-19T09:38:47.739Z,23.80
2018-07-19T09:41:16.026Z,23.60
2018-07-19T09:43:44.344Z,23.50
2018-07-19T09:47:15.961Z,23.20
2018-07-19T09:49:45.255Z,23.00
2018-07-19T09:52:13.560Z,22.90
2018-07-19T09:54:55.715Z,22.80
2018-07-19T09:57:24.149Z,22.60
2018-07-19T09:59:52.552Z,22.40
2018-07-19T10:02:20.854Z,22.40
2018-07-19T10:04:49.145Z,22.30
2018-07-19T10:07:17.481Z,22.30
2018-07-19T10:09:45.749Z,22.40
2018-07-19T10:12:14.051Z,22.50
2018-07-19T10:14:42.410Z,22.40
2018-07-19T10:17:10.835Z,22.50
2018-07-19T10:19:39.247Z,22.40
2018-07-19T10:22:07.739Z,22.40
2018-07-19T10:24:36.014Z,22.40
2018-07-19T10:27:04.350Z,22.40
2018-07-19T10:29:32.678Z,22.40
2018-07-19T10:32:01.013Z,22.60
2018-07-19T10:34:29.373Z,22.70
2018-07-19T10:36:57.622Z,22.60
2018-07-19T10:39:25.928Z,22.60
2018-07-19T10:41:54.206Z,22.40
2018-07-19T10:44:22.528Z,22.30
2018-07-19T10:46:50.813Z,22.40
2018-07-19T10:49:19.144Z,22.40
2018-07-19T10:51:47.452Z,22.40
2018-07-19T10:54:15.811Z,22.50
2018-07-19T10:56:44.122Z,22.40
2018-07-19T10:59:12.418Z,22.50
2018-07-19T11:01:40.712Z,22.60
2018-07-19T11:04:09.009Z,22.60
2018-07-19T11:06:37.366Z,22.60
2018-07-19T11:09:07.764Z,22.60
2018-07-19T11:11:36.052Z,22.50
2018-07-19T11:14:04.371Z,22.50
2018-07-19T11:19:00.799Z,22.70
2018-07-19T11:21:29.075Z,22.70
2018-07-19T11:23:57.368Z,22.70
2018-07-19T11:26:25.667Z,22.60
2018-07-19T11:28:53.969Z,22.70
2018-07-19T11:31:22.419Z,22.90
2018-07-19T11:33:50.863Z,23.00
2018-07-19T11:36:19.152Z,22.80
2018-07-19T11:38:47.461Z,22.80
2018-07-19T11:41:15.778Z,22.80
2018-07-19T11:43:44.133Z,22.80
2018-07-19T11:46:12.410Z,22.90
2018-07-19T11:48:40.690Z,23.10
2018-07-19T11:51:09.001Z,23.10
2018-07-19T11:53:37.285Z,23.20
2018-07-19T11:56:05.617Z,23.00
2018-07-19T11:58:33.907Z,23.10
2018-07-19T12:01:02.203Z,23.20
2018-07-19T12:03:30.475Z,23.20
2018-07-19T12:05:58.792Z,23.30
2018-07-19T12:08:27.264Z,23.50
2018-07-19T12:10:55.547Z,23.50
2018-07-19T12:13:23.916Z,23.40
2018-07-19T12:15:52.196Z,23.30
2018-07-19T12:18:20.540Z,23.30
2018-07-19T12:20:48.845Z,23.20
2018-07-19T12:23:17.132Z,23.40
2018-07-19T12:25:45.425Z,23.40
2018-07-19T12:28:13.778Z,23.40
2018-07-19T12:30:42.080Z,23.40
2018-07-19T12:33:10.408Z,23.30
2018-07-19T12:35:38.698Z,23.30
2018-07-19T12:38:07.023Z,23.30
2018-07-19T12:40:35.295Z,23.40
2018-07-19T12:43:03.633Z,23.30
2018-07-19T12:45:31.914Z,23.20
2018-07-19T12:48:00.200Z,23.20
2018-07-19T12:50:28.499Z,23.40
2018-07-19T12:52:56.801Z,23.60
2018-07-19T12:55:25.089Z,23.70
2018-07-19T12:57:53.421Z,23.70
2018-07-19T13:00:21.780Z,23.70
2018-07-19T13:02:50.044Z,23.70
2018-07-19T13:05:18.512Z,23.80
2018-07-19T13:07:46.676Z,23.80
2018-07-19T13:10:14.975Z,23.90
2018-07-19T13:12:43.323Z,23.80
2018-07-19T13:15:11.663Z,23.80
2018-07-19T13:17:39.988Z,23.80
2018-07-19T13:22:36.375Z,23.90
2018-07-19T13:25:04.787Z,24.10
2018-07-19T13:27:33.234Z,24.10
2018-07-19T13:30:01.518Z,24.10
2018-07-19T13:32:29.832Z,24.10
2018-07-19T13:34:58.109Z,24.30
2018-07-19T13:37:26.401Z,24.20
2018-07-19T13:39:54.663Z,24.00
2018-07-19T13:42:22.956Z,24.10
2018-07-19T13:44:51.289Z,24.00
2018-07-19T13:47:19.564Z,24.00
2018-07-19T13:49:47.849Z,24.00
2018-07-19T13:52:16.368Z,23.90
2018-07-19T13:54:49.896Z,23.80
2018-07-19T13:57:18.188Z,23.80
2018-07-19T13:59:46.484Z,24.00
2018-07-19T14:02:14.820Z,24.10
2018-07-19T14:04:43.101Z,24.10
2018-07-19T14:07:11.443Z,24.10
2018-07-19T14:09:39.758Z,24.10
2018-07-19T14:12:08.068Z,24.20
2018-07-19T14:14:36.363Z,24.50
2018-07-19T14:17:04.645Z,24.50
2018-07-19T14:19:32.938Z,24.50
2018-07-19T14:22:01.229Z,24.40
2018-07-19T14:24:29.528Z,24.30
2018-07-19T14:26:57.862Z,24.20
2018-07-19T14:29:26.143Z,24.30
2018-07-19T14:31:54.401Z,24.40
2018-07-19T14:34:22.700Z,24.50
2018-07-19T14:36:50.970Z,24.60
2018-07-19T14:39:19.256Z,24.50
2018-07-19T14:41:47.529Z,24.50
2018-07-19T14:44:15.802Z,24.50
2018-07-19T14:46:44.075Z,24.60
2018-07-19T14:49:12.375Z,24.70
2018-07-19T14:51:40.660Z,24.60
2018-07-19T14:54:08.949Z,24.70
2018-07-19T14:56:37.244Z,24.80
2018-07-19T14:59:05.645Z,24.80
2018-07-19T15:01:33.958Z,24.70
2018-07-19T15:04:02.257Z,24.60
2018-07-19T15:06:30.531Z,24.60
2018-07-19T15:08:58.825Z,24.60
2018-07-19T15:11:27.265Z,24.70
2018-07-19T15:13:55.559Z,24.80
2018-07-19T15:16:23.868Z,24.70
2018-07-19T15:18:52.166Z,24.70
2018-07-19T15:21:20.566Z,24.60
2018-07-19T15:23:48.854Z,24.60
2018-07-19T15:26:17.138Z,24.60
2018-07-19T15:28:45.448Z,24.60
2018-07-19T15:31:13.715Z,24.60
2018-07-19T15:33:42.035Z,24.70
2018-07-19T15:36:10.328Z,24.60
2018-07-19T15:38:38.592Z,24.50
2018-07-19T15:41:06.897Z,24.50
2018-07-19T15:43:35.206Z,24.60
2018-07-19T15:46:03.508Z,24.50
2018-07-19T15:48:31.765Z,24.50
2018-07-19T15:51:00.063Z,24.60
2018-07-19T15:53:28.370Z,24.60
2018-07-19T15:55:56.679Z,24.50
2018-07-19T15:58:24.959Z,24.50
2018-07-19T16:00:53.291Z,24.40
2018-07-19T16:03:21.725Z,24.40
2018-07-19T16:05:50.182Z,24.40
2018-07-19T16:08:18.463Z,24.40
2018-07-19T16:10:46.786Z,24.30
2018-07-19T16:13:15.067Z,24.30
2018-07-19T16:15:43.386Z,24.30
2018-07-19T16:18:11.702Z,24.30
2018-07-19T16:20:40.052Z,24.40
2018-07-19T16:23:08.297Z,24.40
2018-07-19T16:25:36.665Z,24.40
2018-07-19T16:28:05.091Z,24.50
2018-07-19T16:30:33.463Z,24.50
2018-07-19T16:33:01.816Z,24.50
2018-07-19T16:35:30.133Z,24.40
2018-07-19T16:37:58.450Z,24.30
2018-07-19T16:40:26.766Z,24.30
2018-07-19T16:42:55.307Z,24.20
2018-07-19T16:45:23.601Z,24.20
2018-07-19T16:47:52.168Z,24.20
2018-07-19T16:50:20.499Z,24.10
2018-07-19T16:52:48.812Z,24.10
2018-07-19T16:55:17.235Z,24.00
2018-07-19T16:57:45.582Z,24.00
2018-07-19T17:00:13.875Z,24.00
2018-07-19T17:02:42.290Z,24.00
2018-07-19T17:05:10.565Z,23.90
2018-07-19T17:07:38.918Z,23.90
2018-07-19T17:10:07.578Z,23.90
2018-07-19T17:12:36.153Z,23.90
2018-07-19T17:15:05.073Z,23.90
2018-07-19T17:17:33.439Z,23.80
2018-07-19T17:20:01.814Z,23.90
2018-07-19T17:22:30.175Z,23.80
2018-07-19T17:24:58.506Z,23.80
2018-07-19T17:27:26.872Z,23.70
2018-07-19T17:29:55.253Z,23.70
2018-07-19T17:32:23.649Z,23.60
2018-07-19T17:34:51.995Z,23.70
2018-07-19T17:37:20.308Z,23.70
2018-07-19T17:39:48.602Z,23.70
2018-07-19T17:42:17.048Z,23.60
2018-07-19T17:44:45.418Z,23.50
2018-07-19T17:47:13.762Z,23.50
2018-07-19T17:49:42.269Z,23.50
2018-07-19T17:52:10.681Z,23.40
2018-07-19T17:54:38.964Z,23.30
2018-07-19T17:57:07.505Z,23.30
2018-07-19T17:59:35.811Z,23.30
2018-07-19T18:02:04.126Z,23.30
2018-07-19T18:04:32.416Z,23.20
2018-07-19T18:07:00.721Z,23.20
2018-07-19T18:09:29.152Z,23.10
2018-07-19T18:11:57.498Z,23.10
2018-07-19T18:14:25.814Z,23.10
2018-07-19T18:16:54.221Z,22.90
2018-07-19T18:19:22.819Z,22.90
2018-07-19T18:21:51.131Z,22.80
2018-07-19T18:24:19.406Z,22.70
2018-07-19T18:26:47.747Z,22.70
2018-07-19T18:29:16.050Z,22.60
2018-07-19T18:31:44.326Z,22.60
2018-07-19T18:34:12.621Z,22.50
2018-07-19T18:36:40.936Z,22.40
2018-07-19T18:39:11.119Z,22.30
2018-07-19T18:41:39.845Z,22.20
2018-07-19T18:44:08.368Z,22.10
2018-07-19T18:49:04.957Z,22.10
2018-07-19T18:51:33.429Z,21.90
2018-07-19T18:54:01.748Z,21.80
2018-07-19T18:56:30.689Z,21.70
2018-07-19T18:58:59.071Z,21.70
2018-07-19T19:01:27.451Z,21.60
2018-07-19T19:03:55.773Z,21.50
2018-07-19T19:06:24.232Z,21.40
2018-07-19T19:08:52.501Z,21.30
2018-07-19T19:11:20.859Z,21.20
2018-07-19T19:13:49.189Z,21.10
2018-07-19T19:16:17.585Z,21.00
2018-07-19T19:18:46.100Z,20.90
2018-07-19T19:21:14.480Z,20.90
2018-07-19T19:23:42.867Z,20.80
2018-07-19T19:26:11.251Z,20.70
2018-07-19T19:28:39.591Z,20.70
2018-07-19T19:31:08.036Z,20.60
2018-07-19T19:33:36.386Z,20.60
2018-07-19T19:36:04.707Z,20.50
2018-07-19T19:38:33.387Z,20.30
2018-07-19T19:41:01.720Z,20.30
2018-07-19T19:43:30.228Z,20.30
2018-07-19T19:45:58.606Z,20.20
2018-07-19T19:48:26.975Z,20.10
2018-07-19T19:50:55.372Z,20.00
2018-07-19T19:53:23.883Z,20.00
2018-07-19T19:55:52.248Z,20.00
2018-07-19T19:58:20.631Z,20.00
2018-07-19T20:00:48.954Z,19.90
2018-07-19T20:03:17.349Z,19.90
2018-07-19T20:05:45.717Z,19.80
2018-07-19T20:08:14.102Z,19.70
2018-07-19T20:10:42.449Z,19.50
2018-07-19T20:13:10.788Z,19.20
2018-07-19T20:15:39.230Z,19.00
2018-07-19T20:18:07.654Z,18.80
2018-07-19T20:20:35.953Z,18.60
2018-07-19T20:23:04.304Z,18.40
2018-07-19T20:25:32.656Z,18.30
2018-07-19T20:28:01.445Z,18.00
2018-07-19T20:30:29.758Z,17.90
2018-07-19T20:32:58.195Z,17.70
2018-07-19T20:37:54.620Z,17.40
2018-07-19T20:40:23.093Z,17.40
2018-07-19T20:42:51.519Z,17.30
2018-07-19T20:45:19.923Z,17.30
2018-07-19T20:47:48.270Z,17.20
2018-07-19T20:50:16.657Z,17.20
2018-07-19T20:52:45.012Z,17.10
2018-07-19T20:55:13.419Z,17.00
2018-07-19T20:57:41.917Z,16.80
2018-07-19T21:00:10.284Z,16.70
2018-07-19T21:02:38.622Z,16.60
2018-07-19T21:05:07.005Z,16.40
2018-07-19T21:07:35.410Z,16.30
2018-07-19T21:10:03.956Z,16.20
2018-07-19T21:12:32.351Z,16.10
2018-07-19T21:15:00.761Z,16.10
2018-07-19T21:17:29.345Z,16.00
2018-07-19T21:19:58.283Z,16.00
2018-07-19T21:22:26.829Z,15.90
2018-07-19T21:24:55.275Z,15.60
2018-07-19T21:27:23.634Z,15.50
2018-07-19T21:29:52.398Z,15.40
2018-07-19T21:32:20.799Z,15.30
2018-07-19T21:34:49.148Z,15.30
2018-07-19T21:37:17.613Z,15.30
2018-07-19T21:39:46.035Z,15.30
2018-07-19T21:42:14.374Z,15.40
2018-07-19T21:44:43.810Z,15.30
2018-07-19T21:47:12.176Z,15.30
2018-07-19T21:49:40.600Z,15.20
2018-07-19T21:52:08.984Z,15.10
2018-07-19T21:54:37.507Z,15.00
2018-07-19T21:57:06.102Z,14.80
2018-07-19T21:59:35.310Z,14.70
2018-07-19T22:02:03.731Z,14.60
2018-07-19T22:04:32.095Z,14.60
2018-07-19T22:07:00.507Z,14.50
2018-07-19T22:09:29.019Z,14.50
2018-07-19T22:11:57.403Z,14.60
2018-07-19T22:14:25.876Z,14.60
2018-07-19T22:16:54.327Z,14.60
2018-07-19T22:19:22.773Z,14.50
2018-07-19T22:21:51.138Z,14.40
2018-07-19T22:24:19.572Z,14.50
2018-07-19T22:26:47.919Z,14.40
2018-07-19T22:29:16.302Z,14.40
2018-07-19T22:31:44.683Z,14.50
2018-07-19T22:34:13.143Z,14.50
2018-07-19T22:36:41.515Z,14.40
2018-07-19T22:39:11.280Z,14.20
2018-07-19T22:41:39.801Z,14.20
2018-07-19T22:44:08.169Z,14.10
2018-07-19T22:49:05.370Z,14.00
2018-07-19T22:51:33.743Z,14.10
2018-07-19T22:54:02.163Z,13.90
2018-07-19T22:56:30.547Z,13.90
2018-07-19T22:58:58.971Z,13.80
2018-07-19T23:03:55.555Z,13.60
2018-07-19T23:06:23.921Z,13.50
2018-07-19T23:08:52.281Z,13.40
2018-07-19T23:11:20.746Z,13.40
2018-07-19T23:13:49.193Z,13.40
2018-07-19T23:16:17.855Z,13.40
2018-07-19T23:18:46.335Z,13.50
2018-07-19T23:21:14.736Z,13.50
2018-07-19T23:23:43.096Z,13.50
2018-07-19T23:26:11.507Z,13.50
2018-07-19T23:28:39.949Z,13.50
2018-07-19T23:31:08.431Z,13.60
2018-07-19T23:33:36.794Z,13.60
2018-07-19T23:36:07.938Z,13.60
2018-07-19T23:38:41.813Z,13.60
2018-07-19T23:41:14.952Z,13.40
2018-07-19T23:43:45.996Z,13.30
2018-07-19T23:46:19.956Z,13.10
2018-07-19T23:48:48.380Z,13.00
2018-07-19T23:51:16.743Z,12.80
2018-07-19T23:53:45.188Z,12.70
2018-07-19T23:56:13.733Z,12.80
2018-07-19T23:58:42.153Z,12.80
